sensor_id;sensor_type;location;lat;lon;timestamp;P1;durP1;ratioP1;P2;durP2;ratioP2
8704;SDS011;4389;41.932;25.904;2023-08-07T00:00:24;15.57;;;9.03;;
8704;SDS011;4389;41.932;25.904;2023-08-07T00:02:51;10.77;;;9.47;;
8704;SDS011;4389;41.932;25.904;2023-08-07T00:05:18;12.87;;;10.20;;
8704;SDS011;4389;41.932;25.904;2023-08-07T00:07:46;10.93;;;9.73;;
8704;SDS011;4389;41.932;25.904;2023-08-07T00:10:13;12.10;;;10.90;;
8704;SDS011;4389;41.932;25.904;2023-08-07T00:12:40;14.27;;;11.67;;
8704;SDS011;4389;41.932;25.904;2023-08-07T00:15:08;13.50;;;12.10;;
8704;SDS011;4389;41.932;25.904;2023-08-07T00:17:36;13.87;;;12.40;;
8704;SDS011;4389;41.932;25.904;2023-08-07T00:20:03;14.10;;;12.53;;
8704;SDS011;4389;41.932;25.904;2023-08-07T00:22:30;13.97;;;12.47;;
8704;SDS011;4389;41.932;25.904;2023-08-07T00:24:58;13.53;;;12.13;;
8704;SDS011;4389;41.932;25.904;2023-08-07T00:27:25;13.07;;;11.87;;
8704;SDS011;4389;41.932;25.904;2023-08-07T00:29:52;13.40;;;11.80;;
8704;SDS011;4389;41.932;25.904;2023-08-07T00:32:19;14.47;;;12.70;;
8704;SDS011;4389;41.932;25.904;2023-08-07T00:34:46;13.67;;;12.37;;
8704;SDS011;4389;41.932;25.904;2023-08-07T00:37:13;13.13;;;11.73;;
8704;SDS011;4389;41.932;25.904;2023-08-07T00:39:40;14.10;;;11.63;;
8704;SDS011;4389;41.932;25.904;2023-08-07T00:42:08;14.60;;;12.40;;
8704;SDS011;4389;41.932;25.904;2023-08-07T00:44:35;12.90;;;11.60;;
8704;SDS011;4389;41.932;25.904;2023-08-07T00:47:02;16.43;;;11.37;;
8704;SDS011;4389;41.932;25.904;2023-08-07T00:49:29;13.40;;;10.83;;
8704;SDS011;4389;41.932;25.904;2023-08-07T00:51:56;13.80;;;12.37;;
8704;SDS011;4389;41.932;25.904;2023-08-07T00:54:23;13.93;;;12.30;;
8704;SDS011;4389;41.932;25.904;2023-08-07T00:56:51;13.77;;;12.37;;
8704;SDS011;4389;41.932;25.904;2023-08-07T00:59:20;15.70;;;12.07;;
8704;SDS011;4389;41.932;25.904;2023-08-07T01:01:47;14.33;;;12.53;;
8704;SDS011;4389;41.932;25.904;2023-08-07T01:04:15;15.27;;;13.87;;
8704;SDS011;4389;41.932;25.904;2023-08-07T01:06:42;17.30;;;11.90;;
8704;SDS011;4389;41.932;25.904;2023-08-07T01:09:09;15.23;;;13.43;;
8704;SDS011;4389;41.932;25.904;2023-08-07T01:11:36;14.80;;;12.47;;
8704;SDS011;4389;41.932;25.904;2023-08-07T01:14:13;15.33;;;13.20;;
8704;SDS011;4389;41.932;25.904;2023-08-07T01:16:50;14.33;;;11.87;;
8704;SDS011;4389;41.932;25.904;2023-08-07T01:19:23;14.53;;;13.03;;
8704;SDS011;4389;41.932;25.904;2023-08-07T01:22:04;15.13;;;12.23;;
8704;SDS011;4389;41.932;25.904;2023-08-07T01:24:32;13.87;;;10.77;;
8704;SDS011;4389;41.932;25.904;2023-08-07T01:27:00;17.27;;;10.40;;
8704;SDS011;4389;41.932;25.904;2023-08-07T01:29:34;16.27;;;10.73;;
8704;SDS011;4389;41.932;25.904;2023-08-07T01:32:06;11.20;;;9.40;;
8704;SDS011;4389;41.932;25.904;2023-08-07T01:34:36;14.60;;;9.07;;
8704;SDS011;4389;41.932;25.904;2023-08-07T01:37:08;10.90;;;9.20;;
8704;SDS011;4389;41.932;25.904;2023-08-07T01:39:37;12.20;;;7.50;;
8704;SDS011;4389;41.932;25.904;2023-08-07T01:42:07;7.50;;;5.43;;
8704;SDS011;4389;41.932;25.904;2023-08-07T01:44:36;11.83;;;4.63;;
8704;SDS011;4389;41.932;25.904;2023-08-07T01:47:03;6.17;;;2.20;;
8704;SDS011;4389;41.932;25.904;2023-08-07T01:49:30;2.20;;;2.00;;
8704;SDS011;4389;41.932;25.904;2023-08-07T01:51:57;2.73;;;2.13;;
8704;SDS011;4389;41.932;25.904;2023-08-07T01:54:25;2.10;;;1.80;;
8704;SDS011;4389;41.932;25.904;2023-08-07T01:56:52;8.33;;;2.27;;
8704;SDS011;4389;41.932;25.904;2023-08-07T01:59:19;4.50;;;2.00;;
8704;SDS011;4389;41.932;25.904;2023-08-07T02:01:46;3.93;;;1.60;;
8704;SDS011;4389;41.932;25.904;2023-08-07T02:04:13;1.93;;;1.20;;
8704;SDS011;4389;41.932;25.904;2023-08-07T02:06:40;5.73;;;1.50;;
8704;SDS011;4389;41.932;25.904;2023-08-07T02:09:07;1.83;;;1.57;;
8704;SDS011;4389;41.932;25.904;2023-08-07T02:11:35;5.30;;;2.67;;
8704;SDS011;4389;41.932;25.904;2023-08-07T02:14:02;5.77;;;4.70;;
8704;SDS011;4389;41.932;25.904;2023-08-07T02:16:28;7.13;;;5.40;;
8704;SDS011;4389;41.932;25.904;2023-08-07T02:18:55;6.17;;;4.83;;
8704;SDS011;4389;41.932;25.904;2023-08-07T02:21:22;5.63;;;4.80;;
8704;SDS011;4389;41.932;25.904;2023-08-07T02:23:49;7.47;;;4.57;;
8704;SDS011;4389;41.932;25.904;2023-08-07T02:26:16;4.40;;;3.80;;
8704;SDS011;4389;41.932;25.904;2023-08-07T02:28:44;4.70;;;3.30;;
8704;SDS011;4389;41.932;25.904;2023-08-07T02:31:11;5.20;;;3.90;;
8704;SDS011;4389;41.932;25.904;2023-08-07T02:33:38;6.67;;;3.27;;
8704;SDS011;4389;41.932;25.904;2023-08-07T02:36:06;5.17;;;2.50;;
8704;SDS011;4389;41.932;25.904;2023-08-07T02:38:33;4.43;;;3.20;;
8704;SDS011;4389;41.932;25.904;2023-08-07T02:41:00;11.10;;;3.10;;
8704;SDS011;4389;41.932;25.904;2023-08-07T02:43:27;6.80;;;2.73;;
8704;SDS011;4389;41.932;25.904;2023-08-07T02:45:55;2.80;;;2.43;;
8704;SDS011;4389;41.932;25.904;2023-08-07T02:48:22;7.33;;;3.00;;
8704;SDS011;4389;41.932;25.904;2023-08-07T02:50:49;6.53;;;3.87;;
8704;SDS011;4389;41.932;25.904;2023-08-07T02:53:16;7.63;;;3.10;;
8704;SDS011;4389;41.932;25.904;2023-08-07T02:55:43;2.73;;;2.40;;
8704;SDS011;4389;41.932;25.904;2023-08-07T02:58:10;2.43;;;2.23;;
8704;SDS011;4389;41.932;25.904;2023-08-07T03:00:37;2.87;;;2.57;;
8704;SDS011;4389;41.932;25.904;2023-08-07T03:03:05;2.10;;;1.90;;
8704;SDS011;4389;41.932;25.904;2023-08-07T03:05:32;2.20;;;1.93;;
8704;SDS011;4389;41.932;25.904;2023-08-07T03:07:59;2.77;;;1.70;;
8704;SDS011;4389;41.932;25.904;2023-08-07T03:10:26;2.53;;;1.80;;
8704;SDS011;4389;41.932;25.904;2023-08-07T03:12:53;9.67;;;1.73;;
8704;SDS011;4389;41.932;25.904;2023-08-07T03:15:19;1.87;;;1.47;;
8704;SDS011;4389;41.932;25.904;2023-08-07T03:17:46;7.63;;;1.60;;
8704;SDS011;4389;41.932;25.904;2023-08-07T03:20:15;6.83;;;1.43;;
8704;SDS011;4389;41.932;25.904;2023-08-07T03:22:41;3.67;;;1.83;;
8704;SDS011;4389;41.932;25.904;2023-08-07T03:25:09;1.33;;;1.23;;
8704;SDS011;4389;41.932;25.904;2023-08-07T03:27:36;4.70;;;1.70;;
8704;SDS011;4389;41.932;25.904;2023-08-07T03:30:03;2.40;;;1.47;;
8704;SDS011;4389;41.932;25.904;2023-08-07T03:32:31;3.17;;;1.80;;
8704;SDS011;4389;41.932;25.904;2023-08-07T03:34:58;1.43;;;1.33;;
8704;SDS011;4389;41.932;25.904;2023-08-07T03:37:26;1.57;;;1.10;;
8704;SDS011;4389;41.932;25.904;2023-08-07T03:39:53;2.80;;;1.30;;
8704;SDS011;4389;41.932;25.904;2023-08-07T03:42:20;2.07;;;1.20;;
8704;SDS011;4389;41.932;25.904;2023-08-07T03:44:46;2.20;;;1.50;;
8704;SDS011;4389;41.932;25.904;2023-08-07T03:47:13;4.27;;;2.20;;
8704;SDS011;4389;41.932;25.904;2023-08-07T03:49:40;11.50;;;1.67;;
8704;SDS011;4389;41.932;25.904;2023-08-07T03:52:07;3.53;;;1.70;;
8704;SDS011;4389;41.932;25.904;2023-08-07T03:54:35;7.17;;;1.70;;
8704;SDS011;4389;41.932;25.904;2023-08-07T03:57:02;3.37;;;1.50;;
8704;SDS011;4389;41.932;25.904;2023-08-07T03:59:29;5.00;;;1.60;;
8704;SDS011;4389;41.932;25.904;2023-08-07T04:01:56;4.70;;;1.80;;
8704;SDS011;4389;41.932;25.904;2023-08-07T04:04:23;3.67;;;1.70;;
8704;SDS011;4389;41.932;25.904;2023-08-07T04:06:49;9.40;;;1.80;;
8704;SDS011;4389;41.932;25.904;2023-08-07T04:09:16;5.63;;;1.93;;
8704;SDS011;4389;41.932;25.904;2023-08-07T04:11:44;4.90;;;1.40;;
8704;SDS011;4389;41.932;25.904;2023-08-07T04:14:11;8.03;;;1.90;;
8704;SDS011;4389;41.932;25.904;2023-08-07T04:16:38;8.70;;;2.07;;
8704;SDS011;4389;41.932;25.904;2023-08-07T04:19:05;3.20;;;1.93;;
8704;SDS011;4389;41.932;25.904;2023-08-07T04:21:33;9.55;;;2.10;;
8704;SDS011;4389;41.932;25.904;2023-08-07T04:23:59;11.23;;;2.00;;
8704;SDS011;4389;41.932;25.904;2023-08-07T04:26:33;2.38;;;1.33;;
8704;SDS011;4389;41.932;25.904;2023-08-07T04:29:01;3.97;;;1.60;;
8704;SDS011;4389;41.932;25.904;2023-08-07T04:31:28;3.28;;;1.40;;
8704;SDS011;4389;41.932;25.904;2023-08-07T04:33:56;6.68;;;1.33;;
8704;SDS011;4389;41.932;25.904;2023-08-07T04:36:23;7.20;;;1.70;;
8704;SDS011;4389;41.932;25.904;2023-08-07T04:38:50;4.60;;;1.80;;
8704;SDS011;4389;41.932;25.904;2023-08-07T04:41:17;9.75;;;1.70;;
8704;SDS011;4389;41.932;25.904;2023-08-07T04:43:44;1.30;;;1.20;;
8704;SDS011;4389;41.932;25.904;2023-08-07T04:46:14;5.50;;;1.65;;
8704;SDS011;4389;41.932;25.904;2023-08-07T04:48:41;4.15;;;1.30;;
8704;SDS011;4389;41.932;25.904;2023-08-07T04:51:08;1.52;;;1.40;;
8704;SDS011;4389;41.932;25.904;2023-08-07T04:53:34;6.30;;;1.80;;
8704;SDS011;4389;41.932;25.904;2023-08-07T04:56:02;3.72;;;1.42;;
8704;SDS011;4389;41.932;25.904;2023-08-07T04:58:29;7.90;;;1.45;;
8704;SDS011;4389;41.932;25.904;2023-08-07T05:00:55;5.25;;;1.63;;
8704;SDS011;4389;41.932;25.904;2023-08-07T05:03:25;4.85;;;1.70;;
8704;SDS011;4389;41.932;25.904;2023-08-07T05:05:57;3.83;;;2.35;;
8704;SDS011;4389;41.932;25.904;2023-08-07T05:08:25;2.53;;;1.60;;
8704;SDS011;4389;41.932;25.904;2023-08-07T05:10:52;6.70;;;2.20;;
8704;SDS011;4389;41.932;25.904;2023-08-07T05:13:19;2.40;;;2.10;;
8704;SDS011;4389;41.932;25.904;2023-08-07T05:15:46;3.97;;;1.80;;
8704;SDS011;4389;41.932;25.904;2023-08-07T05:18:14;7.97;;;2.40;;
8704;SDS011;4389;41.932;25.904;2023-08-07T05:20:42;5.47;;;2.30;;
8704;SDS011;4389;41.932;25.904;2023-08-07T05:23:09;2.43;;;1.90;;
8704;SDS011;4389;41.932;25.904;2023-08-07T05:25:36;4.80;;;2.60;;
8704;SDS011;4389;41.932;25.904;2023-08-07T05:28:03;3.73;;;2.20;;
8704;SDS011;4389;41.932;25.904;2023-08-07T05:30:30;6.03;;;2.50;;
8704;SDS011;4389;41.932;25.904;2023-08-07T05:32:57;5.37;;;2.30;;
8704;SDS011;4389;41.932;25.904;2023-08-07T05:35:24;5.73;;;2.20;;
8704;SDS011;4389;41.932;25.904;2023-08-07T05:37:52;2.47;;;2.20;;
8704;SDS011;4389;41.932;25.904;2023-08-07T05:40:19;4.70;;;2.40;;
8704;SDS011;4389;41.932;25.904;2023-08-07T05:42:46;4.17;;;2.50;;
8704;SDS011;4389;41.932;25.904;2023-08-07T05:45:13;5.63;;;2.50;;
8704;SDS011;4389;41.932;25.904;2023-08-07T05:47:39;3.50;;;2.87;;
8704;SDS011;4389;41.932;25.904;2023-08-07T05:50:07;3.43;;;2.50;;
8704;SDS011;4389;41.932;25.904;2023-08-07T05:52:34;6.47;;;3.00;;
8704;SDS011;4389;41.932;25.904;2023-08-07T05:55:02;3.63;;;3.10;;
8704;SDS011;4389;41.932;25.904;2023-08-07T05:57:30;3.17;;;2.80;;
8704;SDS011;4389;41.932;25.904;2023-08-07T05:59:56;5.27;;;3.00;;
8704;SDS011;4389;41.932;25.904;2023-08-07T06:02:23;3.27;;;2.63;;
8704;SDS011;4389;41.932;25.904;2023-08-07T06:04:51;5.23;;;3.00;;
8704;SDS011;4389;41.932;25.904;2023-08-07T06:07:19;3.17;;;2.70;;
8704;SDS011;4389;41.932;25.904;2023-08-07T06:09:46;7.70;;;2.90;;
8704;SDS011;4389;41.932;25.904;2023-08-07T06:12:14;3.53;;;2.87;;
8704;SDS011;4389;41.932;25.904;2023-08-07T06:14:41;2.87;;;2.67;;
8704;SDS011;4389;41.932;25.904;2023-08-07T06:17:08;3.03;;;2.70;;
8704;SDS011;4389;41.932;25.904;2023-08-07T06:19:35;5.73;;;3.20;;
8704;SDS011;4389;41.932;25.904;2023-08-07T06:22:02;6.63;;;3.33;;
8704;SDS011;4389;41.932;25.904;2023-08-07T06:24:29;5.03;;;3.20;;
8704;SDS011;4389;41.932;25.904;2023-08-07T06:26:55;8.33;;;4.07;;
8704;SDS011;4389;41.932;25.904;2023-08-07T06:29:24;3.93;;;2.90;;
8704;SDS011;4389;41.932;25.904;2023-08-07T06:31:50;3.63;;;2.53;;
8704;SDS011;4389;41.932;25.904;2023-08-07T06:34:17;2.80;;;2.50;;
8704;SDS011;4389;41.932;25.904;2023-08-07T06:36:44;3.03;;;2.73;;
8704;SDS011;4389;41.932;25.904;2023-08-07T06:39:11;2.53;;;2.33;;
8704;SDS011;4389;41.932;25.904;2023-08-07T06:41:38;3.90;;;2.73;;
8704;SDS011;4389;41.932;25.904;2023-08-07T06:44:05;5.30;;;2.40;;
8704;SDS011;4389;41.932;25.904;2023-08-07T06:46:33;3.00;;;2.80;;
8704;SDS011;4389;41.932;25.904;2023-08-07T06:49:00;3.13;;;2.83;;
8704;SDS011;4389;41.932;25.904;2023-08-07T06:51:27;4.20;;;2.77;;
8704;SDS011;4389;41.932;25.904;2023-08-07T06:53:54;5.90;;;3.20;;
8704;SDS011;4389;41.932;25.904;2023-08-07T06:56:21;7.40;;;2.63;;
8704;SDS011;4389;41.932;25.904;2023-08-07T06:58:47;5.45;;;2.50;;
8704;SDS011;4389;41.932;25.904;2023-08-07T07:01:15;5.43;;;3.40;;
8704;SDS011;4389;41.932;25.904;2023-08-07T07:03:43;4.47;;;2.90;;
8704;SDS011;4389;41.932;25.904;2023-08-07T07:06:12;4.18;;;2.47;;
8704;SDS011;4389;41.932;25.904;2023-08-07T07:08:38;2.00;;;1.80;;
8704;SDS011;4389;41.932;25.904;2023-08-07T07:11:05;1.77;;;1.67;;
8704;SDS011;4389;41.932;25.904;2023-08-07T07:13:33;3.92;;;2.33;;
8704;SDS011;4389;41.932;25.904;2023-08-07T07:16:00;8.93;;;1.60;;
8704;SDS011;4389;41.932;25.904;2023-08-07T07:18:27;2.65;;;1.70;;
8704;SDS011;4389;41.932;25.904;2023-08-07T07:20:58;2.47;;;1.70;;
8704;SDS011;4389;41.932;25.904;2023-08-07T07:23:26;1.80;;;1.60;;
8704;SDS011;4389;41.932;25.904;2023-08-07T07:25:53;3.03;;;1.88;;
8704;SDS011;4389;41.932;25.904;2023-08-07T07:28:20;4.60;;;1.83;;
8704;SDS011;4389;41.932;25.904;2023-08-07T07:30:47;2.17;;;1.98;;
8704;SDS011;4389;41.932;25.904;2023-08-07T07:33:14;2.85;;;2.08;;
8704;SDS011;4389;41.932;25.904;2023-08-07T07:35:40;1.80;;;1.70;;
8704;SDS011;4389;41.932;25.904;2023-08-07T07:38:09;2.50;;;1.63;;
8704;SDS011;4389;41.932;25.904;2023-08-07T07:40:36;2.88;;;1.60;;
8704;SDS011;4389;41.932;25.904;2023-08-07T07:43:03;1.73;;;1.63;;
8704;SDS011;4389;41.932;25.904;2023-08-07T07:45:30;5.47;;;1.83;;
8704;SDS011;4389;41.932;25.904;2023-08-07T07:47:59;2.05;;;1.60;;
8704;SDS011;4389;41.932;25.904;2023-08-07T07:50:25;2.83;;;1.70;;
8704;SDS011;4389;41.932;25.904;2023-08-07T07:52:52;3.83;;;1.88;;
8704;SDS011;4389;41.932;25.904;2023-08-07T07:55:21;1.77;;;1.42;;
8704;SDS011;4389;41.932;25.904;2023-08-07T07:57:48;2.35;;;1.35;;
8704;SDS011;4389;41.932;25.904;2023-08-07T08:00:15;4.63;;;1.50;;
8704;SDS011;4389;41.932;25.904;2023-08-07T08:02:42;2.53;;;1.40;;
8704;SDS011;4389;41.932;25.904;2023-08-07T08:05:09;1.50;;;1.40;;
8704;SDS011;4389;41.932;25.904;2023-08-07T08:07:37;2.72;;;1.13;;
8704;SDS011;4389;41.932;25.904;2023-08-07T08:10:06;3.63;;;1.60;;
8704;SDS011;4389;41.932;25.904;2023-08-07T08:12:36;16.90;;;2.42;;
8704;SDS011;4389;41.932;25.904;2023-08-07T08:15:03;5.53;;;1.73;;
8704;SDS011;4389;41.932;25.904;2023-08-07T08:17:31;5.78;;;1.83;;
8704;SDS011;4389;41.932;25.904;2023-08-07T08:19:57;4.30;;;1.83;;
8704;SDS011;4389;41.932;25.904;2023-08-07T08:22:24;2.70;;;1.63;;
8704;SDS011;4389;41.932;25.904;2023-08-07T08:24:51;2.97;;;1.80;;
8704;SDS011;4389;41.932;25.904;2023-08-07T08:27:18;1.95;;;1.35;;
8704;SDS011;4389;41.932;25.904;2023-08-07T08:29:47;1.65;;;1.40;;
8704;SDS011;4389;41.932;25.904;2023-08-07T08:32:14;2.20;;;1.65;;
8704;SDS011;4389;41.932;25.904;2023-08-07T08:34:41;6.65;;;1.67;;
8704;SDS011;4389;41.932;25.904;2023-08-07T08:37:08;4.80;;;1.50;;
8704;SDS011;4389;41.932;25.904;2023-08-07T08:39:36;2.67;;;1.35;;
8704;SDS011;4389;41.932;25.904;2023-08-07T08:42:03;6.15;;;1.50;;
8704;SDS011;4389;41.932;25.904;2023-08-07T08:44:31;3.72;;;1.35;;
8704;SDS011;4389;41.932;25.904;2023-08-07T08:47:03;1.40;;;1.30;;
8704;SDS011;4389;41.932;25.904;2023-08-07T08:49:33;3.80;;;1.25;;
8704;SDS011;4389;41.932;25.904;2023-08-07T08:52:09;2.06;;;1.40;;
8704;SDS011;4389;41.932;25.904;2023-08-07T08:54:36;2.38;;;1.63;;
8704;SDS011;4389;41.932;25.904;2023-08-07T08:57:04;2.03;;;1.35;;
8704;SDS011;4389;41.932;25.904;2023-08-07T08:59:32;8.07;;;2.53;;
8704;SDS011;4389;41.932;25.904;2023-08-07T09:02:00;4.57;;;1.33;;
8704;SDS011;4389;41.932;25.904;2023-08-07T09:04:28;9.82;;;2.55;;
8704;SDS011;4389;41.932;25.904;2023-08-07T09:06:55;2.85;;;1.30;;
8704;SDS011;4389;41.932;25.904;2023-08-07T09:09:22;1.42;;;1.33;;
8704;SDS011;4389;41.932;25.904;2023-08-07T09:11:50;2.15;;;1.20;;
8704;SDS011;4389;41.932;25.904;2023-08-07T09:14:20;1.65;;;1.23;;
8704;SDS011;4389;41.932;25.904;2023-08-07T09:16:48;2.22;;;1.73;;
8704;SDS011;4389;41.932;25.904;2023-08-07T09:19:16;3.08;;;1.60;;
8704;SDS011;4389;41.932;25.904;2023-08-07T09:21:44;4.07;;;1.23;;
8704;SDS011;4389;41.932;25.904;2023-08-07T09:24:11;1.60;;;1.50;;
8704;SDS011;4389;41.932;25.904;2023-08-07T09:26:38;2.08;;;1.30;;
8704;SDS011;4389;41.932;25.904;2023-08-07T09:29:09;6.32;;;1.42;;
8704;SDS011;4389;41.932;25.904;2023-08-07T09:31:37;1.73;;;1.10;;
8704;SDS011;4389;41.932;25.904;2023-08-07T09:34:04;12.55;;;1.80;;
8704;SDS011;4389;41.932;25.904;2023-08-07T09:36:31;23.67;;;1.65;;
8704;SDS011;4389;41.932;25.904;2023-08-07T09:39:01;7.40;;;1.05;;
8704;SDS011;4389;41.932;25.904;2023-08-07T09:41:28;1.23;;;1.10;;
8704;SDS011;4389;41.932;25.904;2023-08-07T09:43:56;2.40;;;1.25;;
8704;SDS011;4389;41.932;25.904;2023-08-07T09:46:23;1.30;;;1.20;;
8704;SDS011;4389;41.932;25.904;2023-08-07T09:48:52;3.80;;;1.50;;
8704;SDS011;4389;41.932;25.904;2023-08-07T09:51:23;2.38;;;1.55;;
8704;SDS011;4389;41.932;25.904;2023-08-07T09:53:50;1.20;;;1.10;;
8704;SDS011;4389;41.932;25.904;2023-08-07T09:56:18;4.55;;;1.20;;
8704;SDS011;4389;41.932;25.904;2023-08-07T09:58:48;3.45;;;1.33;;
8704;SDS011;4389;41.932;25.904;2023-08-07T10:01:15;1.30;;;1.20;;
8704;SDS011;4389;41.932;25.904;2023-08-07T10:03:43;0.90;;;0.90;;
8704;SDS011;4389;41.932;25.904;2023-08-07T10:06:09;1.10;;;1.00;;
8704;SDS011;4389;41.932;25.904;2023-08-07T10:08:38;2.83;;;1.40;;
8704;SDS011;4389;41.932;25.904;2023-08-07T10:11:08;1.20;;;1.10;;
8704;SDS011;4389;41.932;25.904;2023-08-07T10:13:36;2.30;;;1.00;;
8704;SDS011;4389;41.932;25.904;2023-08-07T10:16:03;1.13;;;1.02;;
8704;SDS011;4389;41.932;25.904;2023-08-07T10:18:30;2.20;;;1.55;;
8704;SDS011;4389;41.932;25.904;2023-08-07T10:20:57;2.30;;;1.40;;
8704;SDS011;4389;41.932;25.904;2023-08-07T10:23:26;1.80;;;1.25;;
8704;SDS011;4389;41.932;25.904;2023-08-07T10:25:53;3.00;;;1.92;;
8704;SDS011;4389;41.932;25.904;2023-08-07T10:28:21;5.13;;;1.55;;
8704;SDS011;4389;41.932;25.904;2023-08-07T10:30:51;7.70;;;2.17;;
8704;SDS011;4389;41.932;25.904;2023-08-07T10:33:19;3.42;;;1.20;;
8704;SDS011;4389;41.932;25.904;2023-08-07T10:35:46;3.25;;;1.05;;
8704;SDS011;4389;41.932;25.904;2023-08-07T10:38:14;10.18;;;1.52;;
8704;SDS011;4389;41.932;25.904;2023-08-07T10:41:00;1.20;;;1.10;;
8704;SDS011;4389;41.932;25.904;2023-08-07T10:43:28;1.20;;;1.10;;
8704;SDS011;4389;41.932;25.904;2023-08-07T10:46:01;4.28;;;2.35;;
8704;SDS011;4389;41.932;25.904;2023-08-07T10:48:29;2.25;;;1.73;;
8704;SDS011;4389;41.932;25.904;2023-08-07T10:50:57;1.00;;;0.88;;
8704;SDS011;4389;41.932;25.904;2023-08-07T10:53:29;3.97;;;1.35;;
8704;SDS011;4389;41.932;25.904;2023-08-07T10:55:57;3.13;;;1.48;;
8704;SDS011;4389;41.932;25.904;2023-08-07T10:58:25;1.65;;;1.40;;
8704;SDS011;4389;41.932;25.904;2023-08-07T11:03:45;5.97;;;1.40;;
8704;SDS011;4389;41.932;25.904;2023-08-07T11:06:15;2.50;;;1.20;;
8704;SDS011;4389;41.932;25.904;2023-08-07T11:08:42;1.38;;;1.10;;
8704;SDS011;4389;41.932;25.904;2023-08-07T11:11:09;1.25;;;1.13;;
8704;SDS011;4389;41.932;25.904;2023-08-07T11:13:36;1.55;;;1.20;;
8704;SDS011;4389;41.932;25.904;2023-08-07T11:16:03;2.15;;;1.50;;
8704;SDS011;4389;41.932;25.904;2023-08-07T11:18:32;1.30;;;1.20;;
8704;SDS011;4389;41.932;25.904;2023-08-07T11:21:01;1.20;;;1.10;;
8704;SDS011;4389;41.932;25.904;2023-08-07T11:23:28;1.95;;;1.45;;
8704;SDS011;4389;41.932;25.904;2023-08-07T11:25:55;2.47;;;1.35;;
8704;SDS011;4389;41.932;25.904;2023-08-07T11:28:22;1.33;;;1.20;;
8704;SDS011;4389;41.932;25.904;2023-08-07T11:30:50;4.75;;;1.63;;
8704;SDS011;4389;41.932;25.904;2023-08-07T11:33:18;2.97;;;1.10;;
8704;SDS011;4389;41.932;25.904;2023-08-07T11:35:47;1.83;;;1.35;;
8704;SDS011;4389;41.932;25.904;2023-08-07T11:38:15;6.47;;;2.20;;
8704;SDS011;4389;41.932;25.904;2023-08-07T11:40:56;3.20;;;1.50;;
8704;SDS011;4389;41.932;25.904;2023-08-07T11:43:24;1.42;;;1.10;;
8704;SDS011;4389;41.932;25.904;2023-08-07T11:45:52;1.85;;;1.17;;
8704;SDS011;4389;41.932;25.904;2023-08-07T11:48:23;2.45;;;1.30;;
8704;SDS011;4389;41.932;25.904;2023-08-07T11:50:52;1.33;;;1.10;;
8704;SDS011;4389;41.932;25.904;2023-08-07T11:53:19;3.20;;;1.15;;
8704;SDS011;4389;41.932;25.904;2023-08-07T11:55:47;13.23;;;2.58;;
8704;SDS011;4389;41.932;25.904;2023-08-07T11:58:18;1.83;;;1.13;;
8704;SDS011;4389;41.932;25.904;2023-08-07T12:00:46;1.92;;;1.33;;
8704;SDS011;4389;41.932;25.904;2023-08-07T12:06:05;1.38;;;1.20;;
8704;SDS011;4389;41.932;25.904;2023-08-07T12:08:33;1.45;;;1.35;;
8704;SDS011;4389;41.932;25.904;2023-08-07T12:11:01;1.75;;;1.50;;
8704;SDS011;4389;41.932;25.904;2023-08-07T12:13:29;3.95;;;2.25;;
8704;SDS011;4389;41.932;25.904;2023-08-07T12:15:57;2.92;;;2.72;;
8704;SDS011;4389;41.932;25.904;2023-08-07T12:18:26;5.03;;;2.30;;
8704;SDS011;4389;41.932;25.904;2023-08-07T12:20:56;2.05;;;1.85;;
8704;SDS011;4389;41.932;25.904;2023-08-07T12:23:25;2.42;;;2.00;;
8704;SDS011;4389;41.932;25.904;2023-08-07T12:25:53;1.10;;;1.00;;
8704;SDS011;4389;41.932;25.904;2023-08-07T12:28:20;2.30;;;1.20;;
8704;SDS011;4389;41.932;25.904;2023-08-07T12:30:47;2.17;;;1.98;;
8704;SDS011;4389;41.932;25.904;2023-08-07T12:33:14;2.40;;;1.60;;
8704;SDS011;4389;41.932;25.904;2023-08-07T12:35:41;2.35;;;2.15;;
8704;SDS011;4389;41.932;25.904;2023-08-07T12:38:09;7.53;;;2.10;;
8704;SDS011;4389;41.932;25.904;2023-08-07T12:40:40;6.32;;;1.45;;
8704;SDS011;4389;41.932;25.904;2023-08-07T12:43:07;4.18;;;2.08;;
8704;SDS011;4389;41.932;25.904;2023-08-07T12:45:34;4.05;;;1.88;;
8704;SDS011;4389;41.932;25.904;2023-08-07T12:48:01;2.03;;;1.83;;
8704;SDS011;4389;41.932;25.904;2023-08-07T12:50:28;26.00;;;2.50;;
8704;SDS011;4389;41.932;25.904;2023-08-07T12:52:55;1.92;;;1.60;;
8704;SDS011;4389;41.932;25.904;2023-08-07T12:55:22;2.58;;;1.27;;
8704;SDS011;4389;41.932;25.904;2023-08-07T12:57:51;2.25;;;1.20;;
8704;SDS011;4389;41.932;25.904;2023-08-07T13:00:19;2.35;;;1.17;;
8704;SDS011;4389;41.932;25.904;2023-08-07T13:02:47;3.50;;;1.60;;
8704;SDS011;4389;41.932;25.904;2023-08-07T13:05:15;1.23;;;1.05;;
8704;SDS011;4389;41.932;25.904;2023-08-07T13:07:43;2.85;;;1.33;;
8704;SDS011;4389;41.932;25.904;2023-08-07T13:10:12;1.80;;;1.30;;
8704;SDS011;4389;41.932;25.904;2023-08-07T13:12:40;3.20;;;1.55;;
8704;SDS011;4389;41.932;25.904;2023-08-07T13:15:11;2.13;;;1.92;;
8704;SDS011;4389;41.932;25.904;2023-08-07T13:17:39;4.82;;;1.92;;
8704;SDS011;4389;41.932;25.904;2023-08-07T13:20:06;2.97;;;2.08;;
8704;SDS011;4389;41.932;25.904;2023-08-07T13:22:35;5.50;;;1.80;;
8704;SDS011;4389;41.932;25.904;2023-08-07T13:25:02;4.07;;;2.38;;
8704;SDS011;4389;41.932;25.904;2023-08-07T13:27:30;2.42;;;1.77;;
8704;SDS011;4389;41.932;25.904;2023-08-07T13:29:57;2.70;;;1.30;;
8704;SDS011;4389;41.932;25.904;2023-08-07T13:32:25;2.13;;;1.30;;
8704;SDS011;4389;41.932;25.904;2023-08-07T13:34:52;2.05;;;1.80;;
8704;SDS011;4389;41.932;25.904;2023-08-07T13:37:20;4.38;;;1.42;;
8704;SDS011;4389;41.932;25.904;2023-08-07T13:39:47;1.55;;;1.30;;
8704;SDS011;4389;41.932;25.904;2023-08-07T13:42:16;3.33;;;1.42;;
8704;SDS011;4389;41.932;25.904;2023-08-07T13:44:42;6.18;;;1.35;;
8704;SDS011;4389;41.932;25.904;2023-08-07T13:47:10;2.05;;;1.13;;
8704;SDS011;4389;41.932;25.904;2023-08-07T13:49:38;1.30;;;1.10;;
8704;SDS011;4389;41.932;25.904;2023-08-07T13:52:06;1.70;;;1.23;;
8704;SDS011;4389;41.932;25.904;2023-08-07T13:54:32;4.68;;;1.85;;
8704;SDS011;4389;41.932;25.904;2023-08-07T13:56:59;6.65;;;1.70;;
8704;SDS011;4389;41.932;25.904;2023-08-07T13:59:26;5.43;;;1.50;;
8704;SDS011;4389;41.932;25.904;2023-08-07T14:01:53;4.60;;;1.73;;
8704;SDS011;4389;41.932;25.904;2023-08-07T14:04:21;5.32;;;1.75;;
8704;SDS011;4389;41.932;25.904;2023-08-07T14:06:49;8.38;;;1.80;;
8704;SDS011;4389;41.932;25.904;2023-08-07T14:09:16;3.28;;;1.58;;
8704;SDS011;4389;41.932;25.904;2023-08-07T14:11:46;1.85;;;1.48;;
8704;SDS011;4389;41.932;25.904;2023-08-07T14:14:14;4.20;;;1.27;;
8704;SDS011;4389;41.932;25.904;2023-08-07T14:16:40;3.40;;;1.40;;
8704;SDS011;4389;41.932;25.904;2023-08-07T14:19:08;5.10;;;1.48;;
8704;SDS011;4389;41.932;25.904;2023-08-07T14:21:34;1.98;;;1.33;;
8704;SDS011;4389;41.932;25.904;2023-08-07T14:24:03;14.05;;;3.75;;
8704;SDS011;4389;41.932;25.904;2023-08-07T14:26:31;3.97;;;1.67;;
8704;SDS011;4389;41.932;25.904;2023-08-07T14:28:58;2.20;;;1.40;;
8704;SDS011;4389;41.932;25.904;2023-08-07T14:31:25;2.63;;;2.20;;
8704;SDS011;4389;41.932;25.904;2023-08-07T14:33:51;9.18;;;1.50;;
8704;SDS011;4389;41.932;25.904;2023-08-07T14:36:18;6.15;;;2.60;;
8704;SDS011;4389;41.932;25.904;2023-08-07T14:38:45;5.13;;;1.60;;
8704;SDS011;4389;41.932;25.904;2023-08-07T14:41:13;1.88;;;1.40;;
8704;SDS011;4389;41.932;25.904;2023-08-07T14:43:40;4.20;;;1.90;;
8704;SDS011;4389;41.932;25.904;2023-08-07T14:46:07;4.78;;;1.88;;
8704;SDS011;4389;41.932;25.904;2023-08-07T14:48:34;1.67;;;1.50;;
8704;SDS011;4389;41.932;25.904;2023-08-07T14:51:00;5.07;;;1.63;;
8704;SDS011;4389;41.932;25.904;2023-08-07T14:53:27;3.45;;;1.58;;
8704;SDS011;4389;41.932;25.904;2023-08-07T14:55:54;2.35;;;1.42;;
8704;SDS011;4389;41.932;25.904;2023-08-07T14:58:23;1.67;;;1.48;;
8704;SDS011;4389;41.932;25.904;2023-08-07T15:00:53;6.20;;;1.42;;
8704;SDS011;4389;41.932;25.904;2023-08-07T15:03:20;7.57;;;1.80;;
8704;SDS011;4389;41.932;25.904;2023-08-07T15:05:47;3.60;;;1.55;;